createdAt,value
2018-02-20T00:01:43.788Z,71.03
2018-02-20T00:04:11.269Z,56.97
2018-02-20T00:06:38.836Z,66.68
2018-02-20T00:09:06.299Z,70.10
2018-02-20T00:11:33.869Z,65.95
2018-02-20T00:14:02.269Z,77.00
2018-02-20T00:16:29.731Z,69.10
2018-02-20T00:18:57.204Z,81.70
2018-02-20T00:21:24.676Z,72.22
2018-02-20T00:23:52.148Z,78.22
2018-02-20T00:26:19.613Z,67.32
2018-02-20T00:28:47.188Z,76.78
2018-02-20T00:31:14.656Z,75.37
2018-02-20T00:33:42.116Z,66.72
2018-02-20T00:36:09.584Z,72.03
2018-02-20T00:38:37.048Z,70.28
2018-02-20T00:41:04.508Z,71.80
2018-02-20T00:43:31.988Z,61.35
2018-02-20T00:45:59.448Z,62.38
2018-02-20T00:48:26.936Z,71.68
2018-02-20T00:50:54.512Z,61.97
2018-02-20T00:53:21.965Z,69.53
2018-02-20T00:55:49.504Z,62.97
2018-02-20T00:58:17.723Z,68.57
2018-02-20T01:00:45.312Z,70.10
2018-02-20T01:03:12.775Z,60.97
2018-02-20T01:05:40.255Z,70.72
2018-02-20T01:08:08.548Z,71.03
2018-02-20T01:10:36.016Z,75.62
2018-02-20T01:13:03.480Z,76.12
2018-02-20T01:15:30.952Z,67.47
2018-02-20T01:17:58.527Z,64.43
2018-02-20T01:20:26.092Z,66.90
2018-02-20T01:22:53.566Z,62.58
2018-02-20T01:25:21.131Z,69.72
2018-02-20T01:27:48.615Z,61.42
2018-02-20T01:30:16.847Z,62.22
2018-02-20T01:32:44.374Z,70.90
2018-02-20T01:35:11.841Z,74.60
2018-02-20T01:37:39.404Z,72.93
2018-02-20T01:40:06.979Z,67.97
2018-02-20T01:42:34.454Z,63.15
2018-02-20T01:45:02.067Z,78.95
2018-02-20T01:47:30.292Z,66.05
2018-02-20T01:49:57.877Z,77.18
2018-02-20T01:52:25.344Z,76.10
2018-02-20T01:54:52.913Z,72.78
2018-02-20T01:57:20.388Z,68.30
2018-02-20T01:59:47.957Z,62.28
2018-02-20T02:02:15.424Z,58.85
2018-02-20T02:04:43.002Z,74.20
2018-02-20T02:07:10.572Z,62.88
2018-02-20T02:09:38.151Z,67.53
2018-02-20T02:12:05.623Z,79.37
2018-02-20T02:14:33.083Z,63.30
2018-02-20T02:17:00.659Z,77.18
2018-02-20T02:19:28.224Z,71.25
2018-02-20T02:21:55.796Z,67.32
2018-02-20T02:24:23.263Z,63.38
2018-02-20T02:26:50.836Z,65.10
2018-02-20T02:29:18.308Z,66.18
2018-02-20T02:31:45.772Z,64.65
2018-02-20T02:34:13.249Z,74.45
2018-02-20T02:36:40.821Z,61.92
2018-02-20T02:39:09.828Z,73.15
2018-02-20T02:41:37.296Z,65.30
2018-02-20T02:44:04.963Z,61.60
2018-02-20T02:46:32.544Z,65.20
2018-02-20T02:49:01.548Z,63.08
2018-02-20T02:51:29.112Z,73.18
2018-02-20T02:53:56.684Z,66.78
2018-02-20T02:56:24.157Z,72.57
2018-02-20T02:58:51.737Z,75.95
2018-02-20T03:01:19.968Z,72.10
2018-02-20T03:03:47.537Z,72.00
2018-02-20T03:06:15.060Z,68.28
2018-02-20T03:08:42.628Z,68.07
2018-02-20T03:11:10.092Z,62.30
2018-02-20T03:13:37.576Z,74.68
2018-02-20T03:16:05.060Z,69.93
2018-02-20T03:18:32.525Z,73.25
2018-02-20T03:20:59.995Z,68.47
2018-02-20T03:23:27.547Z,58.87
2018-02-20T03:25:55.012Z,59.00
2018-02-20T03:28:22.477Z,64.65
2018-02-20T03:30:49.950Z,62.20
2018-02-20T03:33:17.428Z,63.15
2018-02-20T03:35:44.897Z,64.60
2018-02-20T03:38:12.464Z,62.78
2018-02-20T03:40:39.924Z,55.50
2018-02-20T03:43:07.420Z,72.07
2018-02-20T03:45:35.652Z,57.78
2018-02-20T03:48:03.124Z,65.00
2018-02-20T03:50:30.592Z,67.53
2018-02-20T03:52:58.061Z,62.03
2018-02-20T03:55:25.537Z,67.28
2018-02-20T03:57:53.000Z,74.07
2018-02-20T04:00:20.471Z,78.47
2018-02-20T04:02:47.989Z,73.47
2018-02-20T04:05:15.460Z,69.03
2018-02-20T04:07:43.020Z,64.55
2018-02-20T04:10:10.495Z,68.03
2018-02-20T04:12:38.063Z,64.60
2018-02-20T04:15:05.535Z,68.40
2018-02-20T04:17:32.996Z,63.40
2018-02-20T04:20:00.488Z,66.35
2018-02-20T04:22:27.960Z,64.55
2018-02-20T04:24:55.520Z,64.57
2018-02-20T04:27:22.975Z,70.87
2018-02-20T04:29:50.556Z,67.18
2018-02-20T04:32:18.016Z,70.50
2018-02-20T04:34:45.484Z,61.58
2018-02-20T04:37:12.964Z,73.05
2018-02-20T04:39:40.534Z,64.15
2018-02-20T04:42:08.013Z,68.10
2018-02-20T04:44:35.484Z,78.85
2018-02-20T04:47:02.955Z,68.30
2018-02-20T04:49:30.429Z,64.12
2018-02-20T04:51:57.982Z,65.25
2018-02-20T04:54:25.600Z,67.50
2018-02-20T04:56:53.125Z,67.40
2018-02-20T04:59:20.704Z,68.72
2018-02-20T05:01:48.196Z,64.53
2018-02-20T05:04:15.739Z,73.37
2018-02-20T05:06:43.321Z,66.80
2018-02-20T05:09:10.888Z,61.97
2018-02-20T05:11:38.564Z,60.38
2018-02-20T05:14:06.032Z,64.07
2018-02-20T05:16:33.596Z,69.78
2018-02-20T05:19:01.069Z,71.55
2018-02-20T05:21:28.532Z,63.97
2018-02-20T05:23:56.108Z,60.78
2018-02-20T05:26:23.576Z,72.75
2018-02-20T05:28:51.062Z,62.78
2018-02-20T05:31:18.623Z,63.30
2018-02-20T05:33:46.090Z,78.55
2018-02-20T05:36:13.560Z,61.70
2018-02-20T05:38:41.025Z,67.03
2018-02-20T05:41:08.505Z,64.03
2018-02-20T05:43:35.963Z,65.60
2018-02-20T05:46:03.439Z,62.08
2018-02-20T05:48:31.008Z,61.05
2018-02-20T05:50:58.469Z,65.18
2018-02-20T05:53:25.948Z,65.93
2018-02-20T05:55:53.408Z,58.38
2018-02-20T05:58:20.891Z,67.35
2018-02-20T06:00:48.360Z,66.53
2018-02-20T06:03:15.820Z,70.85
2018-02-20T06:05:43.460Z,63.10
2018-02-20T06:08:10.964Z,66.20
2018-02-20T06:10:38.436Z,74.70
2018-02-20T06:13:05.912Z,73.50
2018-02-20T06:15:33.379Z,67.22
2018-02-20T06:18:00.948Z,65.25
2018-02-20T06:20:28.420Z,64.82
2018-02-20T06:22:55.983Z,64.95
2018-02-20T06:25:23.447Z,56.92
2018-02-20T06:27:50.922Z,69.53
2018-02-20T06:30:18.384Z,64.22
2018-02-20T06:32:45.855Z,66.55
2018-02-20T06:35:13.336Z,74.18
2018-02-20T06:37:40.907Z,85.28
2018-02-20T06:40:08.477Z,66.70
2018-02-20T06:42:35.940Z,64.22
2018-02-20T06:45:03.519Z,64.47
2018-02-20T06:47:30.991Z,67.90
2018-02-20T06:49:58.471Z,70.18
2018-02-20T06:52:26.028Z,59.47
2018-02-20T06:54:53.500Z,64.47
2018-02-20T06:57:20.980Z,70.70
2018-02-20T06:59:48.444Z,60.22
2018-02-20T07:02:16.004Z,58.85
2018-02-20T07:04:43.580Z,67.70
2018-02-20T07:07:11.049Z,63.17
2018-02-20T07:09:38.571Z,66.18
2018-02-20T07:12:06.098Z,68.10
2018-02-20T07:14:33.568Z,58.50
2018-02-20T07:17:01.039Z,71.60
2018-02-20T07:19:29.327Z,68.30
2018-02-20T07:21:56.784Z,60.20
2018-02-20T07:24:24.361Z,63.83
2018-02-20T07:26:51.844Z,63.97
2018-02-20T07:29:19.324Z,72.78
2018-02-20T07:31:47.558Z,62.80
2018-02-20T07:34:15.056Z,64.97
2018-02-20T07:36:42.528Z,67.65
2018-02-20T07:39:10.097Z,73.18
2018-02-20T07:41:37.568Z,82.20
2018-02-20T07:44:05.120Z,65.50
2018-02-20T07:46:32.580Z,67.95
2018-02-20T07:49:00.048Z,70.70
2018-02-20T07:51:27.555Z,69.80
2018-02-20T07:53:55.129Z,77.10
2018-02-20T07:56:22.691Z,85.87
2018-02-20T07:58:50.164Z,88.28
2018-02-20T08:01:17.743Z,82.50
2018-02-20T08:03:46.740Z,70.60
2018-02-20T08:06:14.209Z,74.68
2018-02-20T08:08:41.676Z,72.00
2018-02-20T08:11:09.248Z,75.45
2018-02-20T08:13:36.716Z,67.37
2018-02-20T08:16:04.463Z,66.30
2018-02-20T08:18:31.881Z,65.50
2018-02-20T08:21:00.167Z,73.95
2018-02-20T08:23:27.656Z,63.03
2018-02-20T08:25:55.883Z,75.93
2018-02-20T08:28:23.345Z,63.33
2018-02-20T08:30:50.832Z,72.30
2018-02-20T08:33:18.316Z,67.65
2018-02-20T08:35:45.771Z,69.18
2018-02-20T08:38:13.252Z,71.78
2018-02-20T08:40:40.723Z,67.00
2018-02-20T08:43:08.204Z,73.15
2018-02-20T08:45:35.685Z,63.30
2018-02-20T08:48:03.148Z,66.78
2018-02-20T08:50:30.708Z,70.28
2018-02-20T08:52:58.191Z,68.10
2018-02-20T08:55:25.644Z,73.47
2018-02-20T08:57:53.212Z,63.08
2018-02-20T09:00:20.688Z,65.22
2018-02-20T09:02:48.248Z,63.13
2018-02-20T09:05:15.725Z,62.10
2018-02-20T09:07:43.346Z,70.75
2018-02-20T09:10:11.565Z,60.83
2018-02-20T09:12:39.058Z,66.70
2018-02-20T09:15:06.527Z,58.80
2018-02-20T09:17:34.096Z,63.10
2018-02-20T09:20:01.571Z,64.60
2018-02-20T09:22:29.034Z,62.45
2018-02-20T09:24:56.496Z,64.40
2018-02-20T09:27:23.955Z,57.97
2018-02-20T09:29:51.548Z,61.00
2018-02-20T09:32:19.012Z,55.47
2018-02-20T09:34:46.473Z,58.50
2018-02-20T09:37:13.941Z,55.58
2018-02-20T09:39:41.424Z,59.17
2018-02-20T09:42:08.945Z,63.47
2018-02-20T09:44:36.455Z,56.50
2018-02-20T09:47:03.941Z,54.20
2018-02-20T09:49:31.404Z,58.95
2018-02-20T09:51:58.884Z,59.78
2018-02-20T09:54:26.352Z,59.10
2018-02-20T09:56:53.912Z,56.03
2018-02-20T09:59:21.376Z,62.33
2018-02-20T10:01:48.956Z,64.62
2018-02-20T10:04:16.406Z,60.63
2018-02-20T10:06:43.868Z,55.40
2018-02-20T10:09:11.336Z,57.77
2018-02-20T10:11:38.836Z,56.05
2018-02-20T10:14:06.402Z,60.25
2018-02-20T10:16:33.956Z,59.03
2018-02-20T10:19:01.455Z,57.67
2018-02-20T10:21:28.907Z,57.00
2018-02-20T10:23:56.379Z,59.28
2018-02-20T10:26:23.856Z,64.27
2018-02-20T10:28:51.528Z,55.90
2018-02-20T10:31:19.004Z,56.37
2018-02-20T10:33:46.469Z,58.42
2018-02-20T10:36:13.939Z,59.97
2018-02-20T10:38:41.501Z,57.97
2018-02-20T10:41:08.976Z,56.72
2018-02-20T10:43:36.544Z,59.35
2018-02-20T10:46:04.020Z,57.67
2018-02-20T10:48:31.496Z,56.60
2018-02-20T10:50:58.961Z,61.03
2018-02-20T10:53:27.955Z,59.10
2018-02-20T10:55:55.419Z,60.92
2018-02-20T10:58:22.883Z,60.60
2018-02-20T11:00:50.569Z,55.55
2018-02-20T11:03:18.045Z,57.20
2018-02-20T11:05:45.524Z,53.80
2018-02-20T11:08:13.089Z,55.83
2018-02-20T11:10:40.655Z,55.30
2018-02-20T11:13:08.135Z,52.50
2018-02-20T11:15:35.696Z,57.85
2018-02-20T11:18:03.416Z,55.20
2018-02-20T11:20:31.640Z,53.85
2018-02-20T11:22:59.121Z,51.45
2018-02-20T11:25:26.596Z,51.03
2018-02-20T11:27:54.063Z,53.75
2018-02-20T11:30:21.528Z,49.53
2018-02-20T11:32:48.984Z,48.80
2018-02-20T11:35:16.448Z,48.17
2018-02-20T11:37:43.947Z,50.10
2018-02-20T11:40:11.432Z,52.78
2018-02-20T11:42:38.890Z,46.80
2018-02-20T11:45:06.458Z,46.20
2018-02-20T11:47:33.929Z,47.05
2018-02-20T11:50:01.499Z,46.97
2018-02-20T11:52:28.961Z,47.70
2018-02-20T11:54:56.442Z,48.10
2018-02-20T11:57:23.901Z,47.33
2018-02-20T11:59:51.368Z,46.58
2018-02-20T12:02:18.948Z,48.03
2018-02-20T12:04:46.416Z,46.65
2018-02-20T12:07:13.895Z,44.08
2018-02-20T12:09:41.468Z,46.42
2018-02-20T12:12:08.943Z,45.95
2018-02-20T12:14:36.428Z,44.92
2018-02-20T12:17:04.680Z,44.83
2018-02-20T12:19:32.157Z,46.10
2018-02-20T12:21:59.723Z,44.35
2018-02-20T12:24:27.292Z,46.60
2018-02-20T12:26:54.768Z,43.60
2018-02-20T12:29:22.256Z,42.08
2018-02-20T12:31:49.744Z,43.00
2018-02-20T12:34:17.992Z,41.33
2018-02-20T12:36:45.468Z,41.42
2018-02-20T12:39:12.932Z,42.55
2018-02-20T12:41:40.510Z,42.78
2018-02-20T12:44:07.964Z,39.60
2018-02-20T12:46:35.455Z,41.75
2018-02-20T12:49:02.944Z,37.85
2018-02-20T12:51:31.200Z,39.67
2018-02-20T12:53:58.771Z,35.47
2018-02-20T12:56:26.239Z,36.75
2018-02-20T12:58:53.724Z,34.60
2018-02-20T13:01:21.202Z,37.33
2018-02-20T13:03:48.759Z,40.45
2018-02-20T13:06:16.270Z,38.93
2018-02-20T13:08:44.483Z,34.70
2018-02-20T13:11:11.949Z,37.70
2018-02-20T13:13:39.456Z,34.65
2018-02-20T13:16:07.028Z,39.45
2018-02-20T13:18:35.308Z,40.15
2018-02-20T13:21:02.929Z,38.95
2018-02-20T13:23:30.456Z,40.22
2018-02-20T13:25:57.916Z,41.00
2018-02-20T13:28:25.400Z,37.80
2018-02-20T13:30:52.964Z,35.63
2018-02-20T13:33:20.440Z,37.65
2018-02-20T13:35:47.919Z,36.67
2018-02-20T13:38:15.471Z,41.35
2018-02-20T13:40:43.044Z,41.42
2018-02-20T13:43:10.515Z,37.75
2018-02-20T13:45:38.088Z,41.28
2018-02-20T13:48:05.656Z,39.28
2018-02-20T13:50:33.147Z,41.05
2018-02-20T13:53:00.608Z,38.67
2018-02-20T13:55:28.072Z,39.73
2018-02-20T13:57:55.551Z,38.70
2018-02-20T14:00:23.103Z,38.13
2018-02-20T14:02:50.571Z,35.50
2018-02-20T14:05:18.044Z,35.15
2018-02-20T14:07:45.516Z,32.13
2018-02-20T14:10:13.081Z,29.55
2018-02-20T14:12:41.285Z,31.30
2018-02-20T14:15:08.839Z,30.88
2018-02-20T14:17:36.312Z,32.55
2018-02-20T14:20:03.789Z,30.70
2018-02-20T14:22:31.255Z,31.77
2018-02-20T14:24:58.730Z,28.60
2018-02-20T14:27:26.199Z,29.58
2018-02-20T14:29:53.675Z,30.05
2018-02-20T14:32:21.148Z,33.40
2018-02-20T14:34:49.311Z,30.20
2018-02-20T14:37:16.787Z,30.43
2018-02-20T14:39:44.261Z,32.35
2018-02-20T14:42:11.846Z,33.58
2018-02-20T14:44:39.408Z,34.92
2018-02-20T14:47:06.967Z,32.80
2018-02-20T14:49:34.540Z,31.58
2018-02-20T14:52:02.016Z,32.95
2018-02-20T14:54:29.489Z,33.15
2018-02-20T14:56:57.068Z,37.25
2018-02-20T14:59:24.544Z,31.48
2018-02-20T15:01:52.148Z,31.33
2018-02-20T15:04:19.672Z,32.07
2018-02-20T15:06:47.132Z,33.92
2018-02-20T15:09:14.604Z,37.30
2018-02-20T15:11:42.075Z,32.80
2018-02-20T15:14:09.644Z,39.33
2018-02-20T15:16:38.624Z,36.80
2018-02-20T15:19:06.092Z,36.20
2018-02-20T15:21:33.578Z,36.70
2018-02-20T15:24:01.065Z,38.73
2018-02-20T15:26:28.528Z,43.00
2018-02-20T15:28:55.996Z,36.13
2018-02-20T15:31:23.568Z,40.07
2018-02-20T15:33:51.052Z,37.07
2018-02-20T15:41:12.688Z,37.23
2018-02-20T15:43:40.201Z,32.97
2018-02-20T15:46:07.678Z,37.43
2018-02-20T15:48:35.164Z,33.95
2018-02-20T15:51:03.419Z,32.10
2018-02-20T15:53:31.024Z,38.80
2018-02-20T15:55:58.571Z,45.20
2018-02-20T15:58:26.136Z,44.20
2018-02-20T16:00:53.615Z,37.70
2018-02-20T16:03:21.180Z,36.67
2018-02-20T16:05:48.654Z,34.37
2018-02-20T16:08:17.402Z,38.03
2018-02-20T16:10:44.884Z,38.20
2018-02-20T16:13:12.397Z,36.90
2018-02-20T16:15:40.453Z,36.28
2018-02-20T16:18:07.965Z,40.20
2018-02-20T16:20:35.524Z,37.95
2018-02-20T16:23:03.126Z,40.80
2018-02-20T16:25:31.360Z,42.97
2018-02-20T16:27:58.844Z,42.47
2018-02-20T16:30:26.311Z,45.70
2018-02-20T16:32:53.884Z,43.13
2018-02-20T16:35:21.461Z,47.20
2018-02-20T16:37:48.924Z,46.80
2018-02-20T16:40:16.500Z,47.03
2018-02-20T16:42:43.978Z,45.55
2018-02-20T16:45:11.442Z,49.88
2018-02-20T16:47:39.020Z,41.50
2018-02-20T16:50:06.580Z,45.33
2018-02-20T16:52:34.040Z,47.15
2018-02-20T16:55:01.516Z,52.42
2018-02-20T16:57:28.992Z,49.45
2018-02-20T16:59:56.452Z,49.17
2018-02-20T17:02:23.929Z,49.80
2018-02-20T17:04:51.495Z,48.53
2018-02-20T17:07:18.956Z,51.50
2018-02-20T17:09:46.425Z,49.22
2018-02-20T17:12:13.919Z,50.75
2018-02-20T17:14:41.383Z,57.05
2018-02-20T17:17:08.847Z,48.53
2018-02-20T17:19:36.332Z,50.58
2018-02-20T17:22:03.941Z,56.83
2018-02-20T17:24:31.456Z,55.08
2018-02-20T17:26:58.919Z,51.75
2018-02-20T17:29:26.404Z,53.40
2018-02-20T17:31:53.878Z,51.22
2018-02-20T17:34:21.332Z,53.20
2018-02-20T17:36:48.801Z,52.55
2018-02-20T17:39:16.255Z,49.33
2018-02-20T17:41:43.751Z,55.65
2018-02-20T17:44:11.208Z,58.20
2018-02-20T17:46:38.684Z,55.03
2018-02-20T17:49:06.162Z,63.15
2018-02-20T17:51:33.621Z,61.08
2018-02-20T17:54:01.093Z,56.35
2018-02-20T17:56:29.327Z,55.50
2018-02-20T17:58:57.565Z,57.08
2018-02-20T18:01:25.028Z,63.25
2018-02-20T18:03:52.489Z,54.08
2018-02-20T18:06:19.960Z,62.95
2018-02-20T18:08:47.431Z,60.67
2018-02-20T18:11:14.912Z,59.58
2018-02-20T18:13:42.368Z,58.70
2018-02-20T18:16:09.853Z,58.60
2018-02-20T18:18:37.328Z,66.55
2018-02-20T18:21:04.897Z,59.50
2018-02-20T18:23:32.414Z,68.93
2018-02-20T18:26:00.652Z,62.28
2018-02-20T18:28:28.228Z,65.55
2018-02-20T18:30:55.697Z,69.20
2018-02-20T18:33:23.271Z,59.45
2018-02-20T18:35:50.733Z,67.62
2018-02-20T18:38:18.304Z,67.70
2018-02-20T18:40:45.764Z,61.55
2018-02-20T18:43:13.352Z,62.40
2018-02-20T18:45:40.808Z,62.80
2018-02-20T18:48:08.276Z,62.45
2018-02-20T18:50:35.861Z,65.37
2018-02-20T18:53:03.339Z,63.80
2018-02-20T18:55:30.800Z,67.37
2018-02-20T18:57:58.264Z,66.22
2018-02-20T19:00:25.732Z,77.15
2018-02-20T19:02:53.208Z,71.75
2018-02-20T19:05:20.656Z,68.18
2018-02-20T19:07:48.120Z,75.28
2018-02-20T19:10:15.617Z,73.90
2018-02-20T19:12:43.188Z,68.35
2018-02-20T19:15:10.755Z,80.20
2018-02-20T19:17:38.384Z,81.78
2018-02-20T19:20:05.845Z,90.93
2018-02-20T19:22:34.120Z,93.45
2018-02-20T19:25:02.379Z,90.62
2018-02-20T19:27:29.848Z,93.15
2018-02-20T19:29:57.320Z,99.43
2018-02-20T19:32:24.891Z,99.47
2018-02-20T19:34:55.205Z,97.85
2018-02-20T19:37:22.668Z,98.55
2018-02-20T19:39:50.161Z,93.78
2018-02-20T19:42:17.733Z,100.87
2018-02-20T19:44:45.193Z,78.72
2018-02-20T19:47:12.681Z,79.70
2018-02-20T19:49:40.145Z,87.93
2018-02-20T19:52:07.599Z,81.90
2018-02-20T19:54:35.069Z,78.07
2018-02-20T19:57:02.534Z,81.75
2018-02-20T19:59:30.027Z,92.32
2018-02-20T20:01:57.592Z,75.85
2018-02-20T20:04:25.179Z,79.50
2018-02-20T20:06:53.444Z,76.72
2018-02-20T20:09:20.916Z,78.45
2018-02-20T20:11:48.381Z,81.57
2018-02-20T20:14:15.845Z,77.37
2018-02-20T20:16:43.315Z,74.70
2018-02-20T20:19:10.776Z,80.85
2018-02-20T20:21:38.264Z,83.00
2018-02-20T20:24:05.724Z,79.70
2018-02-20T20:26:33.184Z,79.87
2018-02-20T20:29:00.669Z,82.65
2018-02-20T20:31:28.125Z,76.47
2018-02-20T20:33:55.617Z,92.18
2018-02-20T20:36:23.071Z,86.97
2018-02-20T20:38:50.553Z,89.87
2018-02-20T20:41:18.128Z,85.90
2018-02-20T20:43:45.696Z,87.25
2018-02-20T20:46:13.164Z,82.65
2018-02-20T20:48:40.628Z,88.95
2018-02-20T20:51:08.085Z,77.30
2018-02-20T20:53:35.551Z,86.50
2018-02-20T20:56:03.036Z,82.60
2018-02-20T20:58:30.488Z,75.80
2018-02-20T21:00:57.956Z,88.57
2018-02-20T21:03:25.457Z,85.60
2018-02-20T21:05:52.921Z,85.82
2018-02-20T21:08:20.491Z,85.20
2018-02-20T21:10:47.948Z,88.18
2018-02-20T21:13:15.428Z,85.20
2018-02-20T21:15:42.892Z,78.65
2018-02-20T21:18:10.352Z,83.78
2018-02-20T21:20:37.831Z,86.63
2018-02-20T21:23:05.288Z,85.03
2018-02-20T21:25:32.784Z,88.53
2018-02-20T21:28:00.354Z,83.35
2018-02-20T21:30:27.824Z,90.30
2018-02-20T21:32:55.300Z,81.20
2018-02-20T21:35:23.516Z,77.30
2018-02-20T21:37:51.743Z,89.68
2018-02-20T21:40:19.209Z,73.72
2018-02-20T21:42:46.690Z,75.60
2018-02-20T21:45:14.201Z,86.30
2018-02-20T21:47:42.455Z,89.80
2018-02-20T21:50:09.953Z,88.05
2018-02-20T21:52:37.501Z,82.03
2018-02-20T21:55:04.961Z,88.85
2018-02-20T21:57:32.428Z,94.35
2018-02-20T21:59:59.912Z,93.20
2018-02-20T22:02:27.393Z,95.00
2018-02-20T22:04:54.863Z,98.87
2018-02-20T22:07:22.424Z,97.32
2018-02-20T22:09:49.895Z,97.18
2018-02-20T22:12:17.360Z,105.80
2018-02-20T22:14:44.836Z,81.80
2018-02-20T22:17:12.307Z,89.37
2018-02-20T22:19:39.907Z,93.80
2018-02-20T22:22:08.180Z,89.20
2018-02-20T22:24:35.728Z,90.07
2018-02-20T22:27:04.062Z,98.82
2018-02-20T22:29:31.544Z,91.07
2018-02-20T22:31:59.059Z,98.57
2018-02-20T22:34:26.528Z,91.47
2018-02-20T22:36:54.050Z,83.75
2018-02-20T22:39:21.642Z,84.20
2018-02-20T22:41:49.118Z,92.25
2018-02-20T22:44:16.712Z,93.55
2018-02-20T22:46:44.187Z,81.60
2018-02-20T22:49:11.680Z,89.72
2018-02-20T22:51:39.944Z,86.03
2018-02-20T22:54:07.427Z,102.22
2018-02-20T22:56:34.900Z,91.82
2018-02-20T22:59:02.459Z,98.70
2018-02-20T23:01:30.022Z,91.30
2018-02-20T23:03:57.607Z,97.45
2018-02-20T23:06:25.072Z,92.10
2018-02-20T23:08:52.535Z,99.62
2018-02-20T23:11:31.960Z,101.85
2018-02-20T23:13:59.436Z,97.07
2018-02-20T23:16:26.929Z,94.85
2018-02-20T23:18:54.400Z,97.22
2018-02-20T23:21:21.867Z,92.70
2018-02-20T23:23:49.448Z,104.70
2018-02-20T23:26:17.111Z,85.72
2018-02-20T23:28:44.684Z,100.68
2018-02-20T23:31:12.259Z,105.50
2018-02-20T23:33:39.824Z,93.35
2018-02-20T23:36:07.320Z,114.10
2018-02-20T23:38:35.587Z,107.30
2018-02-20T23:41:03.155Z,104.47
2018-02-20T23:43:30.623Z,94.60
2018-02-20T23:45:58.093Z,103.65
2018-02-20T23:48:25.664Z,101.32
2018-02-20T23:50:58.940Z,108.80
2018-02-20T23:53:26.440Z,103.38
2018-02-20T23:55:53.904Z,100.28
2018-02-20T23:58:21.391Z,104.57
